PWSweather.com
Personal Weather Stations
Station Observations
NBW76
Silver Creek, North Bend, WA 98065

Silver CreekNorth Bend, WA 98065

Lat: 47.4993612, Lon: -121.7783245

Elevation: 443

Station Type: Davisd VP2 + Solar + UV + Webcam

Latest ConditionsUpdated 5:20:00 PM PST Friday, Jan 19, 2018
Currently Today's Max Today's Min Today's Average
Temperature 41.2°F5.1°C 42.8°F6.0°C 36.9°F2.7°C 39.9°F4.4°C
Dew Point 38.8°F3.8°C 40.6°F4.8°C 35.3°F1.8°C 38.1°F3.4°C
Winds 4.6 mph SE7.4 kmh SE 5.8 mph SE9.3 kmh SE - 1.6 mph 2.6 kmh
Wind Gusts 6.9 mph11.1 kmh 11.5 mph18.5 kmh - -
Humidity 91% 95% 90% 93%
Pressure 29.88 in1011.9 mb 29.90 in1012.5 mb 29.80 in1009.1 mb -
Precipitation - 0.29 in7.4 mm - -
Hour Temp Dew Point Humidity Winds Wind Gusts Pressure Precip Precip Rate Daily Precip Total
05:20 PM 41.2°F5.1°C 38.8°F3.8°C 91% 4.6 mph SE7.4 kmh SE 6.9 mph11.1 kmh 29.88 in1011.9 mb - 0.01 in0.3 mm 0.29 in7.4 mm
05:10 PM 41.5°F5.3°C 38.8°F3.8°C 90% 5.8 mph ESE9.3 kmh ESE 9.2 mph14.8 kmh 29.88 in1011.9 mb - 0.00 in0.0 mm 0.28 in7.1 mm
05:00 PM 41.1°F5.1°C 38.7°F3.7°C 91% 5.8 mph SE9.3 kmh SE 11.5 mph18.5 kmh 29.88 in1011.9 mb - 0.01 in0.3 mm 0.28 in7.1 mm
04:50 PM 41.5°F5.3°C 38.8°F3.8°C 90% 1.2 mph SSE1.9 kmh SSE 4.6 mph7.4 kmh 29.89 in1012.2 mb - 0.00 in0.0 mm 0.27 in6.9 mm
04:40 PM 41.4°F5.2°C 39.0°F3.9°C 91% Calm Calm 3.5 mph5.6 kmh 29.89 in1012.2 mb - 0.02 in0.5 mm 0.27 in6.9 mm
04:30 PM 41.3°F5.2°C 38.9°F3.8°C 91% 3.5 mph SE5.6 kmh SE 8.1 mph13.0 kmh 29.89 in1012.2 mb - 0.01 in0.3 mm 0.26 in6.6 mm
04:20 PM 41.4°F5.2°C 38.9°F3.8°C 91% 1.2 mph ESE1.9 kmh ESE 4.6 mph7.4 kmh 29.89 in1012.2 mb - 0.01 in0.3 mm 0.25 in6.4 mm
04:10 PM 41.2°F5.1°C 39.0°F3.9°C 92% 4.6 mph ESE7.4 kmh ESE 4.6 mph7.4 kmh 29.89 in1012.2 mb - 0.02 in0.5 mm 0.25 in6.4 mm
04:00 PM 41.3°F5.2°C 39.2°F4.0°C 92% 2.3 mph ESE3.7 kmh ESE 3.5 mph5.6 kmh 29.89 in1012.2 mb - 0.00 in0.0 mm 0.23 in5.8 mm
03:50 PM 41.3°F5.2°C 39.2°F4.0°C 92% 4.6 mph E7.4 kmh E 6.9 mph11.1 kmh 29.89 in1012.2 mb - 0.01 in0.3 mm 0.23 in5.8 mm
03:40 PM 41.4°F5.2°C 39.0°F3.9°C 91% 4.6 mph SSE7.4 kmh SSE 6.9 mph11.1 kmh 29.89 in1012.2 mb - 0.01 in0.3 mm 0.22 in5.6 mm
03:30 PM 41.4°F5.2°C 39.2°F4.0°C 92% 2.3 mph E3.7 kmh E 3.5 mph5.6 kmh 29.89 in1012.2 mb - 0.00 in0.0 mm 0.21 in5.3 mm
03:20 PM 41.5°F5.3°C 39.3°F4.1°C 92% 1.2 mph ESE1.9 kmh ESE 2.3 mph3.7 kmh 29.89 in1012.2 mb - 0.01 in0.3 mm 0.21 in5.3 mm
03:10 PM 41.7°F5.4°C 39.6°F4.2°C 92% Calm Calm 3.5 mph5.6 kmh 29.89 in1012.2 mb - 0.01 in0.3 mm 0.20 in5.1 mm
03:00 PM 42.0°F5.6°C 39.8°F4.3°C 92% Calm Calm 3.5 mph5.6 kmh 29.89 in1012.2 mb - 0.01 in0.3 mm 0.19 in4.8 mm
02:50 PM 42.0°F5.6°C 39.9°F4.4°C 92% Calm Calm 2.3 mph3.7 kmh 29.89 in1012.2 mb - 0.01 in0.3 mm 0.18 in4.6 mm
02:40 PM 42.2°F5.7°C 40.0°F4.4°C 92% 3.5 mph NE5.6 kmh NE 3.5 mph5.6 kmh 29.88 in1011.9 mb - 0.01 in0.3 mm 0.17 in4.3 mm
02:30 PM 42.2°F5.7°C 40.3°F4.6°C 93% 1.2 mph SE1.9 kmh SE 1.2 mph1.9 kmh 29.88 in1011.9 mb - 0.00 in0.0 mm 0.16 in4.1 mm
02:20 PM 42.2°F5.7°C 40.3°F4.6°C 93% 1.2 mph E1.9 kmh E 3.5 mph5.6 kmh 29.88 in1011.9 mb - 0.01 in0.3 mm 0.16 in4.1 mm
02:10 PM 42.5°F5.8°C 40.6°F4.8°C 93% 2.3 mph ESE3.7 kmh ESE 3.5 mph5.6 kmh 29.88 in1011.9 mb - 0.00 in0.0 mm 0.15 in3.8 mm
02:00 PM 42.4°F5.8°C 40.5°F4.7°C 93% Calm Calm 1.2 mph1.9 kmh 29.89 in1012.2 mb - 0.00 in0.0 mm 0.15 in3.8 mm
01:50 PM 42.5°F5.8°C 40.3°F4.6°C 92% 1.2 mph SSE1.9 kmh SSE 2.3 mph3.7 kmh 29.89 in1012.2 mb - 0.01 in0.3 mm 0.15 in3.8 mm
01:40 PM 42.5°F5.8°C 40.3°F4.6°C 92% 1.2 mph SSE1.9 kmh SSE 3.5 mph5.6 kmh 29.89 in1012.2 mb - 0.01 in0.3 mm 0.14 in3.6 mm
01:30 PM 42.4°F5.8°C 40.0°F4.4°C 91% 2.3 mph SSE3.7 kmh SSE 3.5 mph5.6 kmh 29.89 in1012.2 mb - 0.00 in0.0 mm 0.13 in3.3 mm
01:20 PM 42.3°F5.7°C 39.9°F4.4°C 91% 1.2 mph ESE1.9 kmh ESE 3.5 mph5.6 kmh 29.89 in1012.2 mb - 0.01 in0.3 mm 0.13 in3.3 mm
01:10 PM 42.2°F5.7°C 40.0°F4.4°C 92% 2.3 mph ESE3.7 kmh ESE 6.9 mph11.1 kmh 29.89 in1012.2 mb - 0.01 in0.3 mm 0.12 in3.0 mm
01:00 PM 42.4°F5.8°C 40.3°F4.6°C 92% 1.2 mph E1.9 kmh E 3.5 mph5.6 kmh 29.90 in1012.5 mb - 0.01 in0.3 mm 0.11 in2.8 mm
12:50 PM 42.5°F5.8°C 40.3°F4.6°C 92% 3.5 mph ESE5.6 kmh ESE 3.5 mph5.6 kmh 29.90 in1012.5 mb - 0.02 in0.5 mm 0.11 in2.8 mm
12:40 PM 42.6°F5.9°C 40.1°F4.5°C 91% 2.3 mph SE3.7 kmh SE 3.5 mph5.6 kmh 29.90 in1012.5 mb - 0.02 in0.5 mm 0.09 in2.3 mm
12:30 PM 42.7°F5.9°C 40.0°F4.4°C 90% Calm Calm 2.3 mph3.7 kmh 29.89 in1012.2 mb - 0.01 in0.3 mm 0.08 in2.0 mm
12:20 PM 42.8°F6.0°C 40.1°F4.5°C 90% 2.3 mph SSE3.7 kmh SSE 4.6 mph7.4 kmh 29.89 in1012.2 mb - 0.00 in0.0 mm 0.07 in1.8 mm
12:10 PM 42.7°F5.9°C 40.3°F4.6°C 91% 3.5 mph ESE5.6 kmh ESE 4.6 mph7.4 kmh 29.89 in1012.2 mb - 0.01 in0.3 mm 0.07 in1.8 mm
12:00 PM 42.6°F5.9°C 40.2°F4.6°C 91% 2.3 mph SE3.7 kmh SE 3.5 mph5.6 kmh 29.89 in1012.2 mb - 0.00 in0.0 mm 0.06 in1.5 mm
11:50 AM 42.3°F5.7°C 39.9°F4.4°C 91% 3.5 mph SE5.6 kmh SE 3.5 mph5.6 kmh 29.90 in1012.5 mb - 0.00 in0.0 mm 0.06 in1.5 mm
11:40 AM 42.1°F5.6°C 39.9°F4.4°C 92% 3.5 mph SE5.6 kmh SE 5.8 mph9.3 kmh 29.90 in1012.5 mb - 0.00 in0.0 mm 0.06 in1.5 mm
11:30 AM 42.0°F5.6°C 40.1°F4.5°C 93% 3.5 mph SE5.6 kmh SE 5.8 mph9.3 kmh 29.90 in1012.5 mb - 0.00 in0.0 mm 0.06 in1.5 mm
11:20 AM 42.1°F5.6°C 40.2°F4.6°C 93% 2.3 mph SE3.7 kmh SE 3.5 mph5.6 kmh 29.90 in1012.5 mb - 0.00 in0.0 mm 0.06 in1.5 mm
11:10 AM 41.7°F5.4°C 39.8°F4.3°C 93% 2.3 mph ESE3.7 kmh ESE 4.6 mph7.4 kmh 29.89 in1012.2 mb - 0.00 in0.0 mm 0.06 in1.5 mm
11:00 AM 41.4°F5.2°C 39.5°F4.2°C 93% 3.5 mph ESE5.6 kmh ESE 5.8 mph9.3 kmh 29.90 in1012.5 mb - 0.00 in0.0 mm 0.06 in1.5 mm
10:50 AM 41.3°F5.2°C 39.4°F4.1°C 93% 2.3 mph SE3.7 kmh SE 3.5 mph5.6 kmh 29.90 in1012.5 mb - 0.01 in0.3 mm 0.06 in1.5 mm
10:40 AM 41.1°F5.1°C 39.5°F4.2°C 94% 1.2 mph ESE1.9 kmh ESE 4.6 mph7.4 kmh 29.90 in1012.5 mb - 0.00 in0.0 mm 0.05 in1.3 mm
10:30 AM 41.0°F5.0°C 39.4°F4.1°C 94% 1.2 mph ESE1.9 kmh ESE 1.2 mph1.9 kmh 29.90 in1012.5 mb - 0.00 in0.0 mm 0.05 in1.3 mm
10:20 AM 40.9°F4.9°C 39.6°F4.2°C 95% Calm Calm -- 29.89 in1012.2 mb - 0.00 in0.0 mm 0.05 in1.3 mm
10:10 AM 40.5°F4.7°C 38.9°F3.8°C 94% 2.3 mph SE3.7 kmh SE 3.5 mph5.6 kmh 29.89 in1012.2 mb - 0.00 in0.0 mm 0.05 in1.3 mm
10:00 AM 40.0°F4.4°C 38.4°F3.6°C 94% Calm Calm 1.2 mph1.9 kmh 29.89 in1012.2 mb - 0.00 in0.0 mm 0.05 in1.3 mm
09:50 AM 39.7°F4.3°C 38.1°F3.4°C 94% Calm Calm -- 29.89 in1012.2 mb - 0.01 in0.3 mm 0.05 in1.3 mm
09:40 AM 39.9°F4.4°C 38.3°F3.5°C 94% 1.2 mph NE1.9 kmh NE 1.2 mph1.9 kmh 29.89 in1012.2 mb - 0.01 in0.3 mm 0.04 in1.0 mm
09:30 AM 39.8°F4.3°C 38.2°F3.4°C 94% Calm Calm -- 29.88 in1011.9 mb - 0.00 in0.0 mm 0.03 in0.8 mm
09:20 AM 39.6°F4.2°C 38.0°F3.3°C 94% 1.2 mph SSE1.9 kmh SSE 1.2 mph1.9 kmh 29.88 in1011.9 mb - 0.00 in0.0 mm 0.03 in0.8 mm
09:10 AM 39.4°F4.1°C 37.8°F3.2°C 94% Calm Calm -- 29.88 in1011.9 mb - 0.00 in0.0 mm 0.03 in0.8 mm
09:00 AM 39.3°F4.1°C 37.7°F3.2°C 94% Calm Calm -- 29.87 in1011.5 mb - 0.00 in0.0 mm 0.03 in0.8 mm
08:50 AM 39.1°F3.9°C 37.5°F3.1°C 94% Calm Calm -- 29.87 in1011.5 mb - 0.00 in0.0 mm 0.03 in0.8 mm
08:40 AM 38.8°F3.8°C 37.2°F2.9°C 94% Calm Calm -- 29.87 in1011.5 mb - 0.00 in0.0 mm 0.03 in0.8 mm
08:30 AM 38.6°F3.7°C 36.8°F2.7°C 93% Calm Calm -- 29.86 in1011.2 mb - 0.00 in0.0 mm 0.03 in0.8 mm
08:20 AM 38.7°F3.7°C 36.9°F2.7°C 93% 2.3 mph NW3.7 kmh NW 3.5 mph5.6 kmh 29.86 in1011.2 mb - 0.00 in0.0 mm 0.03 in0.8 mm
08:10 AM 39.1°F3.9°C 37.2°F2.9°C 93% 1.2 mph SSE1.9 kmh SSE 3.5 mph5.6 kmh 29.85 in1010.8 mb - 0.01 in0.3 mm 0.03 in0.8 mm
08:00 AM 39.2°F4.0°C 37.4°F3.0°C 93% 2.3 mph ENE3.7 kmh ENE 3.5 mph5.6 kmh 29.85 in1010.8 mb - 0.00 in0.0 mm 0.02 in0.5 mm
07:50 AM 39.2°F4.0°C 37.3°F2.9°C 93% 1.2 mph ESE1.9 kmh ESE 3.5 mph5.6 kmh 29.84 in1010.5 mb - 0.00 in0.0 mm 0.02 in0.5 mm
07:40 AM 39.0°F3.9°C 37.1°F2.8°C 93% 2.3 mph ESE3.7 kmh ESE 4.6 mph7.4 kmh 29.84 in1010.5 mb - 0.00 in0.0 mm 0.02 in0.5 mm
07:30 AM 38.9°F3.8°C 37.0°F2.8°C 93% 3.5 mph SE5.6 kmh SE 3.5 mph5.6 kmh 29.84 in1010.5 mb - 0.00 in0.0 mm 0.02 in0.5 mm
07:20 AM 39.0°F3.9°C 37.1°F2.8°C 93% 2.3 mph SE3.7 kmh SE 3.5 mph5.6 kmh 29.84 in1010.5 mb - 0.00 in0.0 mm 0.02 in0.5 mm
07:10 AM 39.4°F4.1°C 37.8°F3.2°C 94% 3.5 mph SE5.6 kmh SE 3.5 mph5.6 kmh 29.84 in1010.5 mb - 0.00 in0.0 mm 0.02 in0.5 mm
07:00 AM 39.0°F3.9°C 37.7°F3.2°C 95% 3.5 mph SE5.6 kmh SE 4.6 mph7.4 kmh 29.84 in1010.5 mb - 0.00 in0.0 mm 0.02 in0.5 mm
06:50 AM 39.0°F3.9°C 37.7°F3.2°C 95% Calm Calm 1.2 mph1.9 kmh 29.84 in1010.5 mb - 0.00 in0.0 mm 0.02 in0.5 mm
06:40 AM 38.6°F3.7°C 37.3°F2.9°C 95% 1.2 mph E1.9 kmh E 4.6 mph7.4 kmh 29.84 in1010.5 mb - 0.00 in0.0 mm 0.02 in0.5 mm
06:30 AM 38.2°F3.4°C 36.9°F2.7°C 95% 2.3 mph NE3.7 kmh NE 3.5 mph5.6 kmh 29.85 in1010.8 mb - 0.00 in0.0 mm 0.02 in0.5 mm
06:20 AM 37.8°F3.2°C 36.5°F2.5°C 95% 3.5 mph NE5.6 kmh NE 6.9 mph11.1 kmh 29.84 in1010.5 mb - 0.00 in0.0 mm 0.02 in0.5 mm
06:10 AM 37.5°F3.1°C 35.9°F2.2°C 94% Calm Calm -- 29.84 in1010.5 mb - 0.00 in0.0 mm 0.02 in0.5 mm
06:00 AM 37.7°F3.2°C 36.1°F2.3°C 94% Calm Calm 2.3 mph3.7 kmh 29.83 in1010.2 mb - 0.00 in0.0 mm 0.02 in0.5 mm
05:50 AM 37.7°F3.2°C 36.1°F2.3°C 94% Calm Calm 2.3 mph3.7 kmh 29.83 in1010.2 mb - 0.00 in0.0 mm 0.02 in0.5 mm
05:40 AM 37.5°F3.1°C 35.9°F2.2°C 94% Calm Calm -- 29.83 in1010.2 mb - 0.00 in0.0 mm 0.02 in0.5 mm
05:30 AM 37.4°F3.0°C 35.8°F2.1°C 94% 1.2 mph E1.9 kmh E 3.5 mph5.6 kmh 29.83 in1010.2 mb - 0.00 in0.0 mm 0.02 in0.5 mm
05:20 AM 37.2°F2.9°C 35.7°F2.1°C 94% 2.3 mph ENE3.7 kmh ENE 2.3 mph3.7 kmh 29.83 in1010.2 mb - 0.00 in0.0 mm 0.02 in0.5 mm
05:10 AM 37.7°F3.2°C 36.1°F2.3°C 94% Calm Calm 1.2 mph1.9 kmh 29.83 in1010.2 mb - 0.00 in0.0 mm 0.02 in0.5 mm
05:00 AM 37.7°F3.2°C 36.1°F2.3°C 94% Calm Calm -- 29.82 in1009.8 mb - 0.00 in0.0 mm 0.02 in0.5 mm
04:50 AM 38.0°F3.3°C 36.5°F2.5°C 94% Calm Calm 1.2 mph1.9 kmh 29.83 in1010.2 mb - 0.00 in0.0 mm 0.02 in0.5 mm
04:40 AM 38.1°F3.4°C 36.3°F2.4°C 93% Calm Calm -- 29.82 in1009.8 mb - 0.00 in0.0 mm 0.02 in0.5 mm
04:30 AM 38.1°F3.4°C 36.3°F2.4°C 93% Calm Calm -- 29.83 in1010.2 mb - 0.00 in0.0 mm 0.02 in0.5 mm
04:20 AM 38.3°F3.5°C 36.4°F2.4°C 93% 1.2 mph ESE1.9 kmh ESE 2.3 mph3.7 kmh 29.83 in1010.2 mb - 0.00 in0.0 mm 0.02 in0.5 mm
04:10 AM 38.4°F3.6°C 36.6°F2.6°C 93% Calm Calm -- 29.82 in1009.8 mb - 0.00 in0.0 mm 0.02 in0.5 mm
04:00 AM 38.5°F3.6°C 36.7°F2.6°C 93% 1.2 mph E1.9 kmh E 2.3 mph3.7 kmh 29.82 in1009.8 mb - 0.00 in0.0 mm 0.02 in0.5 mm
03:50 AM 38.6°F3.7°C 36.8°F2.7°C 93% 1.2 mph E1.9 kmh E 3.5 mph5.6 kmh 29.82 in1009.8 mb - 0.00 in0.0 mm 0.02 in0.5 mm
03:40 AM 38.8°F3.8°C 37.0°F2.8°C 93% Calm Calm 2.3 mph3.7 kmh 29.82 in1009.8 mb - 0.00 in0.0 mm 0.02 in0.5 mm
03:30 AM 39.0°F3.9°C 37.1°F2.8°C 93% Calm Calm -- 29.82 in1009.8 mb - 0.01 in0.3 mm 0.02 in0.5 mm
03:20 AM 39.2°F4.0°C 37.3°F2.9°C 93% 1.2 mph ESE1.9 kmh ESE 1.2 mph1.9 kmh 29.81 in1009.5 mb - 0.00 in0.0 mm 0.01 in0.3 mm
03:10 AM 39.3°F4.1°C 37.2°F2.9°C 92% Calm Calm 1.2 mph1.9 kmh 29.82 in1009.8 mb - 0.01 in0.3 mm 0.01 in0.3 mm
03:00 AM 39.3°F4.1°C 37.5°F3.1°C 93% 3.5 mph ESE5.6 kmh ESE 3.5 mph5.6 kmh 29.82 in1009.8 mb - 0.00 in0.0 mm 0.00 in0.0 mm
02:50 AM 38.7°F3.7°C 36.9°F2.7°C 93% 3.5 mph SSE5.6 kmh SSE 5.8 mph9.3 kmh 29.81 in1009.5 mb - 0.00 in0.0 mm 0.00 in0.0 mm
02:40 AM 38.6°F3.7°C 36.8°F2.7°C 93% 1.2 mph SSE1.9 kmh SSE 3.5 mph5.6 kmh 29.81 in1009.5 mb - 0.00 in0.0 mm 0.00 in0.0 mm
02:30 AM 38.6°F3.7°C 36.8°F2.7°C 93% Calm Calm -- 29.81 in1009.5 mb - 0.00 in0.0 mm 0.00 in0.0 mm
02:20 AM 38.7°F3.7°C 36.9°F2.7°C 93% 1.2 mph ESE1.9 kmh ESE 2.3 mph3.7 kmh 29.81 in1009.5 mb - 0.00 in0.0 mm 0.00 in0.0 mm
02:10 AM 38.8°F3.8°C 36.9°F2.7°C 93% Calm Calm -- 29.81 in1009.5 mb - 0.00 in0.0 mm 0.00 in0.0 mm
02:00 AM 38.9°F3.8°C 37.0°F2.8°C 93% 1.2 mph SE1.9 kmh SE 1.2 mph1.9 kmh 29.81 in1009.5 mb - 0.00 in0.0 mm 0.00 in0.0 mm
01:50 AM 38.9°F3.8°C 37.0°F2.8°C 93% 3.5 mph SE5.6 kmh SE 4.6 mph7.4 kmh 29.80 in1009.1 mb - 0.00 in0.0 mm 0.00 in0.0 mm
01:40 AM 38.8°F3.8°C 36.9°F2.7°C 93% 1.2 mph SE1.9 kmh SE 3.5 mph5.6 kmh 29.80 in1009.1 mb - 0.00 in0.0 mm 0.00 in0.0 mm
01:30 AM 38.6°F3.7°C 37.0°F2.8°C 94% 2.3 mph SSE3.7 kmh SSE 3.5 mph5.6 kmh 29.80 in1009.1 mb - 0.00 in0.0 mm 0.00 in0.0 mm
01:20 AM 38.5°F3.6°C 36.9°F2.7°C 94% 1.2 mph ESE1.9 kmh ESE 4.6 mph7.4 kmh 29.80 in1009.1 mb - 0.00 in0.0 mm 0.00 in0.0 mm
01:10 AM 38.3°F3.5°C 36.7°F2.6°C 94% 1.2 mph SSE1.9 kmh SSE 3.5 mph5.6 kmh 29.80 in1009.1 mb - 0.00 in0.0 mm 0.00 in0.0 mm
01:00 AM 38.1°F3.4°C 36.6°F2.6°C 94% 1.2 mph SSE1.9 kmh SSE 3.5 mph5.6 kmh 29.80 in1009.1 mb - 0.00 in0.0 mm 0.00 in0.0 mm
12:50 AM 38.1°F3.4°C 36.5°F2.5°C 94% Calm Calm 1.2 mph1.9 kmh 29.80 in1009.1 mb - 0.00 in0.0 mm 0.00 in0.0 mm
12:40 AM 38.2°F3.4°C 36.6°F2.6°C 94% 1.2 mph E1.9 kmh E 1.2 mph1.9 kmh 29.80 in1009.1 mb - 0.00 in0.0 mm 0.00 in0.0 mm
12:30 AM 38.1°F3.4°C 36.5°F2.5°C 94% 2.3 mph ESE3.7 kmh ESE 3.5 mph5.6 kmh 29.80 in1009.1 mb - 0.00 in0.0 mm 0.00 in0.0 mm
12:20 AM 37.5°F3.1°C 35.9°F2.2°C 94% 3.5 mph SE5.6 kmh SE 3.5 mph5.6 kmh 29.80 in1009.1 mb - 0.00 in0.0 mm 0.00 in0.0 mm
12:10 AM 36.9°F2.7°C 35.4°F1.9°C 94% Calm Calm -- 29.80 in1009.1 mb - 0.00 in0.0 mm 0.00 in0.0 mm
12:00 AM 36.9°F2.7°C 35.3°F1.8°C 94% 1.2 mph NE1.9 kmh NE 1.2 mph1.9 kmh 29.80 in1009.1 mb - 0.00 in0.0 mm 0.00 in0.0 mm